sensor_id;sensor_type;location;lat;lon;timestamp;temperature;humidity
11609;DHT22;5860;52.018;8.536;2023-05-10T00:00:38;14.20;99.90
11609;DHT22;5860;52.018;8.536;2023-05-10T00:03:05;14.30;99.90
11609;DHT22;5860;52.018;8.536;2023-05-10T00:05:32;14.20;99.90
11609;DHT22;5860;52.018;8.536;2023-05-10T00:07:59;14.20;99.90
11609;DHT22;5860;52.018;8.536;2023-05-10T00:10:26;14.30;99.90
11609;DHT22;5860;52.018;8.536;2023-05-10T00:12:53;14.30;99.90
11609;DHT22;5860;52.018;8.536;2023-05-10T00:15:20;14.30;99.90
11609;DHT22;5860;52.018;8.536;2023-05-10T00:17:47;14.30;99.90
11609;DHT22;5860;52.018;8.536;2023-05-10T00:20:14;14.30;99.90
11609;DHT22;5860;52.018;8.536;2023-05-10T00:22:41;14.20;99.90
11609;DHT22;5860;52.018;8.536;2023-05-10T00:25:09;14.20;99.90
11609;DHT22;5860;52.018;8.536;2023-05-10T00:27:37;14.20;99.90
11609;DHT22;5860;52.018;8.536;2023-05-10T00:30:04;14.10;99.90
11609;DHT22;5860;52.018;8.536;2023-05-10T00:32:31;14.10;99.90
11609;DHT22;5860;52.018;8.536;2023-05-10T00:34:58;14.00;99.90
11609;DHT22;5860;52.018;8.536;2023-05-10T00:37:25;14.00;99.90
11609;DHT22;5860;52.018;8.536;2023-05-10T00:39:52;14.00;99.90
11609;DHT22;5860;52.018;8.536;2023-05-10T00:42:19;14.00;99.90
11609;DHT22;5860;52.018;8.536;2023-05-10T00:44:46;14.00;99.90
11609;DHT22;5860;52.018;8.536;2023-05-10T00:47:13;14.00;99.90
11609;DHT22;5860;52.018;8.536;2023-05-10T00:49:41;14.00;99.90
11609;DHT22;5860;52.018;8.536;2023-05-10T00:52:08;14.00;99.90
11609;DHT22;5860;52.018;8.536;2023-05-10T00:54:36;14.10;99.90
11609;DHT22;5860;52.018;8.536;2023-05-10T00:57:03;14.20;99.90
11609;DHT22;5860;52.018;8.536;2023-05-10T00:59:30;14.10;99.90
11609;DHT22;5860;52.018;8.536;2023-05-10T01:01:58;14.10;99.90
11609;DHT22;5860;52.018;8.536;2023-05-10T01:04:25;14.20;99.90
11609;DHT22;5860;52.018;8.536;2023-05-10T01:06:52;14.10;99.90
11609;DHT22;5860;52.018;8.536;2023-05-10T01:09:23;14.00;99.90
11609;DHT22;5860;52.018;8.536;2023-05-10T01:11:51;14.10;99.90
11609;DHT22;5860;52.018;8.536;2023-05-10T01:14:19;14.10;99.90
11609;DHT22;5860;52.018;8.536;2023-05-10T01:16:48;14.10;99.90
11609;DHT22;5860;52.018;8.536;2023-05-10T01:19:22;14.10;99.90
11609;DHT22;5860;52.018;8.536;2023-05-10T01:27:53;14.10;99.90
11609;DHT22;5860;52.018;8.536;2023-05-10T01:33:23;14.10;99.90
11609;DHT22;5860;52.018;8.536;2023-05-10T01:38:51;14.00;99.90
11609;DHT22;5860;52.018;8.536;2023-05-10T01:44:46;14.00;99.90
11609;DHT22;5860;52.018;8.536;2023-05-10T01:49:55;14.00;99.90
11609;DHT22;5860;52.018;8.536;2023-05-10T01:52:26;14.10;99.90
11609;DHT22;5860;52.018;8.536;2023-05-10T01:55:22;14.00;99.90
11609;DHT22;5860;52.018;8.536;2023-05-10T01:57:55;14.00;99.90
11609;DHT22;5860;52.018;8.536;2023-05-10T02:00:26;14.00;99.90
11609;DHT22;5860;52.018;8.536;2023-05-10T02:02:54;14.10;99.90
11609;DHT22;5860;52.018;8.536;2023-05-10T02:05:22;14.00;99.90
11609;DHT22;5860;52.018;8.536;2023-05-10T02:07:50;13.90;99.90
11609;DHT22;5860;52.018;8.536;2023-05-10T02:10:18;13.90;99.90
11609;DHT22;5860;52.018;8.536;2023-05-10T02:12:48;13.90;99.90
11609;DHT22;5860;52.018;8.536;2023-05-10T02:15:20;14.00;99.90
11609;DHT22;5860;52.018;8.536;2023-05-10T02:17:47;13.90;99.90
11609;DHT22;5860;52.018;8.536;2023-05-10T02:20:16;13.80;99.90
11609;DHT22;5860;52.018;8.536;2023-05-10T02:22:47;13.80;99.90
11609;DHT22;5860;52.018;8.536;2023-05-10T02:25:17;13.80;99.90
11609;DHT22;5860;52.018;8.536;2023-05-10T02:27:46;13.80;99.90
11609;DHT22;5860;52.018;8.536;2023-05-10T02:30:15;13.70;99.90
11609;DHT22;5860;52.018;8.536;2023-05-10T02:32:43;13.70;99.90
11609;DHT22;5860;52.018;8.536;2023-05-10T02:35:11;13.70;99.90
11609;DHT22;5860;52.018;8.536;2023-05-10T02:37:39;13.70;99.90
11609;DHT22;5860;52.018;8.536;2023-05-10T02:40:07;13.70;99.90
11609;DHT22;5860;52.018;8.536;2023-05-10T02:42:36;13.70;99.90
11609;DHT22;5860;52.018;8.536;2023-05-10T02:45:10;13.70;99.90
11609;DHT22;5860;52.018;8.536;2023-05-10T02:47:38;13.70;99.90
11609;DHT22;5860;52.018;8.536;2023-05-10T02:50:06;13.80;99.90
11609;DHT22;5860;52.018;8.536;2023-05-10T02:52:42;13.70;99.90
11609;DHT22;5860;52.018;8.536;2023-05-10T02:55:12;13.80;99.90
11609;DHT22;5860;52.018;8.536;2023-05-10T02:57:59;13.80;99.90
11609;DHT22;5860;52.018;8.536;2023-05-10T03:00:26;13.80;99.90
11609;DHT22;5860;52.018;8.536;2023-05-10T03:02:54;13.80;99.90
11609;DHT22;5860;52.018;8.536;2023-05-10T03:05:21;13.70;99.90
11609;DHT22;5860;52.018;8.536;2023-05-10T03:07:48;13.70;99.90
11609;DHT22;5860;52.018;8.536;2023-05-10T03:10:15;13.70;99.90
11609;DHT22;5860;52.018;8.536;2023-05-10T03:18:18;13.60;99.90
11609;DHT22;5860;52.018;8.536;2023-05-10T03:20:50;13.70;99.90
11609;DHT22;5860;52.018;8.536;2023-05-10T03:25:45;13.70;99.90
11609;DHT22;5860;52.018;8.536;2023-05-10T03:28:14;13.60;99.90
11609;DHT22;5860;52.018;8.536;2023-05-10T03:30:43;13.60;99.90
11609;DHT22;5860;52.018;8.536;2023-05-10T03:33:10;13.60;99.90
11609;DHT22;5860;52.018;8.536;2023-05-10T03:35:37;13.50;99.90
11609;DHT22;5860;52.018;8.536;2023-05-10T03:38:04;13.50;99.90
11609;DHT22;5860;52.018;8.536;2023-05-10T03:40:31;13.50;99.90
11609;DHT22;5860;52.018;8.536;2023-05-10T03:42:59;13.40;99.90
11609;DHT22;5860;52.018;8.536;2023-05-10T03:45:26;13.40;99.90
11609;DHT22;5860;52.018;8.536;2023-05-10T03:47:53;13.50;99.90
11609;DHT22;5860;52.018;8.536;2023-05-10T03:50:21;13.50;99.90
11609;DHT22;5860;52.018;8.536;2023-05-10T03:52:48;13.50;99.90
11609;DHT22;5860;52.018;8.536;2023-05-10T03:55:15;13.50;99.90
11609;DHT22;5860;52.018;8.536;2023-05-10T03:57:42;13.50;99.90
11609;DHT22;5860;52.018;8.536;2023-05-10T04:00:10;13.40;99.90
11609;DHT22;5860;52.018;8.536;2023-05-10T04:02:37;13.40;99.90
11609;DHT22;5860;52.018;8.536;2023-05-10T04:05:04;13.40;99.90
11609;DHT22;5860;52.018;8.536;2023-05-10T04:07:31;13.40;99.90
11609;DHT22;5860;52.018;8.536;2023-05-10T04:09:58;13.40;99.90
11609;DHT22;5860;52.018;8.536;2023-05-10T04:12:25;13.40;99.90
11609;DHT22;5860;52.018;8.536;2023-05-10T04:14:52;13.30;99.90
11609;DHT22;5860;52.018;8.536;2023-05-10T04:17:19;13.20;99.90
11609;DHT22;5860;52.018;8.536;2023-05-10T04:19:46;13.20;99.90
11609;DHT22;5860;52.018;8.536;2023-05-10T04:22:13;13.20;99.90
11609;DHT22;5860;52.018;8.536;2023-05-10T04:24:40;13.10;99.90
11609;DHT22;5860;52.018;8.536;2023-05-10T04:27:07;13.10;99.90
11609;DHT22;5860;52.018;8.536;2023-05-10T04:29:34;13.00;99.90
11609;DHT22;5860;52.018;8.536;2023-05-10T04:32:01;13.00;99.90
11609;DHT22;5860;52.018;8.536;2023-05-10T04:34:28;13.10;99.90
11609;DHT22;5860;52.018;8.536;2023-05-10T04:36:55;13.00;99.90
11609;DHT22;5860;52.018;8.536;2023-05-10T04:39:22;13.00;99.90
11609;DHT22;5860;52.018;8.536;2023-05-10T04:41:49;13.00;99.90
11609;DHT22;5860;52.018;8.536;2023-05-10T04:44:16;12.90;99.90
11609;DHT22;5860;52.018;8.536;2023-05-10T04:46:43;13.00;99.90
11609;DHT22;5860;52.018;8.536;2023-05-10T04:49:10;12.90;99.90
11609;DHT22;5860;52.018;8.536;2023-05-10T04:51:37;12.90;99.90
11609;DHT22;5860;52.018;8.536;2023-05-10T04:54:04;12.90;99.90
11609;DHT22;5860;52.018;8.536;2023-05-10T04:56:32;12.90;99.90
11609;DHT22;5860;52.018;8.536;2023-05-10T04:59:00;12.90;99.90
11609;DHT22;5860;52.018;8.536;2023-05-10T05:01:27;12.90;99.90
11609;DHT22;5860;52.018;8.536;2023-05-10T05:03:54;13.00;99.90
11609;DHT22;5860;52.018;8.536;2023-05-10T05:06:21;12.90;99.90
11609;DHT22;5860;52.018;8.536;2023-05-10T05:08:48;12.90;99.90
11609;DHT22;5860;52.018;8.536;2023-05-10T05:11:17;13.00;99.90
11609;DHT22;5860;52.018;8.536;2023-05-10T05:13:44;13.00;99.90
11609;DHT22;5860;52.018;8.536;2023-05-10T05:16:11;13.00;99.90
11609;DHT22;5860;52.018;8.536;2023-05-10T05:18:38;13.10;99.90
11609;DHT22;5860;52.018;8.536;2023-05-10T05:21:18;13.10;99.90
11609;DHT22;5860;52.018;8.536;2023-05-10T05:23:45;13.10;99.90
11609;DHT22;5860;52.018;8.536;2023-05-10T05:26:12;13.00;99.90
11609;DHT22;5860;52.018;8.536;2023-05-10T05:28:40;13.00;99.90
11609;DHT22;5860;52.018;8.536;2023-05-10T05:31:07;13.00;99.90
11609;DHT22;5860;52.018;8.536;2023-05-10T05:33:35;13.10;99.90
11609;DHT22;5860;52.018;8.536;2023-05-10T05:36:05;13.10;99.90
11609;DHT22;5860;52.018;8.536;2023-05-10T05:38:32;13.00;99.90
11609;DHT22;5860;52.018;8.536;2023-05-10T05:41:00;13.00;99.90
11609;DHT22;5860;52.018;8.536;2023-05-10T05:43:27;13.00;99.90
11609;DHT22;5860;52.018;8.536;2023-05-10T05:45:54;13.00;99.90
11609;DHT22;5860;52.018;8.536;2023-05-10T05:48:21;13.00;99.90
11609;DHT22;5860;52.018;8.536;2023-05-10T05:50:49;13.00;99.90
11609;DHT22;5860;52.018;8.536;2023-05-10T05:53:16;13.00;99.90
11609;DHT22;5860;52.018;8.536;2023-05-10T05:55:54;13.00;99.90
11609;DHT22;5860;52.018;8.536;2023-05-10T05:58:22;13.10;99.90
11609;DHT22;5860;52.018;8.536;2023-05-10T06:00:49;13.10;99.90
11609;DHT22;5860;52.018;8.536;2023-05-10T06:03:17;13.10;99.90
11609;DHT22;5860;52.018;8.536;2023-05-10T06:05:44;13.10;99.90
11609;DHT22;5860;52.018;8.536;2023-05-10T06:08:11;13.00;99.90
11609;DHT22;5860;52.018;8.536;2023-05-10T06:10:37;13.00;99.90
11609;DHT22;5860;52.018;8.536;2023-05-10T06:13:04;13.00;99.90
11609;DHT22;5860;52.018;8.536;2023-05-10T06:15:32;13.00;99.90
11609;DHT22;5860;52.018;8.536;2023-05-10T06:17:59;13.00;99.90
11609;DHT22;5860;52.018;8.536;2023-05-10T06:20:26;13.00;99.90
11609;DHT22;5860;52.018;8.536;2023-05-10T06:22:53;13.00;99.90
11609;DHT22;5860;52.018;8.536;2023-05-10T06:25:20;13.00;99.90
11609;DHT22;5860;52.018;8.536;2023-05-10T06:27:48;13.00;99.90
11609;DHT22;5860;52.018;8.536;2023-05-10T06:30:19;13.10;99.90
11609;DHT22;5860;52.018;8.536;2023-05-10T06:32:46;13.10;99.90
11609;DHT22;5860;52.018;8.536;2023-05-10T06:35:13;13.00;99.90
11609;DHT22;5860;52.018;8.536;2023-05-10T06:37:41;13.10;99.90
11609;DHT22;5860;52.018;8.536;2023-05-10T06:40:08;13.20;99.90
11609;DHT22;5860;52.018;8.536;2023-05-10T06:42:35;13.20;99.90
11609;DHT22;5860;52.018;8.536;2023-05-10T06:45:03;13.20;99.90
11609;DHT22;5860;52.018;8.536;2023-05-10T06:47:30;13.20;99.90
11609;DHT22;5860;52.018;8.536;2023-05-10T06:49:58;13.30;99.90
11609;DHT22;5860;52.018;8.536;2023-05-10T06:52:25;13.30;99.90
11609;DHT22;5860;52.018;8.536;2023-05-10T06:54:52;13.10;99.90
11609;DHT22;5860;52.018;8.536;2023-05-10T06:57:19;13.30;99.90
11609;DHT22;5860;52.018;8.536;2023-05-10T07:00:00;13.10;99.90
11609;DHT22;5860;52.018;8.536;2023-05-10T07:02:27;13.20;99.90
11609;DHT22;5860;52.018;8.536;2023-05-10T07:04:54;13.30;99.90
11609;DHT22;5860;52.018;8.536;2023-05-10T07:07:21;13.30;99.90
11609;DHT22;5860;52.018;8.536;2023-05-10T07:09:48;13.20;99.90
11609;DHT22;5860;52.018;8.536;2023-05-10T07:12:16;13.20;99.90
11609;DHT22;5860;52.018;8.536;2023-05-10T07:14:44;13.10;99.90
11609;DHT22;5860;52.018;8.536;2023-05-10T07:17:11;13.10;99.90
11609;DHT22;5860;52.018;8.536;2023-05-10T07:19:38;13.40;99.90
11609;DHT22;5860;52.018;8.536;2023-05-10T07:22:04;13.50;99.90
11609;DHT22;5860;52.018;8.536;2023-05-10T07:24:33;13.60;99.90
11609;DHT22;5860;52.018;8.536;2023-05-10T07:27:00;13.60;99.90
11609;DHT22;5860;52.018;8.536;2023-05-10T07:29:27;13.40;99.90
11609;DHT22;5860;52.018;8.536;2023-05-10T07:31:55;13.70;99.90
11609;DHT22;5860;52.018;8.536;2023-05-10T07:34:24;13.60;99.90
11609;DHT22;5860;52.018;8.536;2023-05-10T07:36:52;13.60;99.90
11609;DHT22;5860;52.018;8.536;2023-05-10T07:39:19;13.50;99.90
11609;DHT22;5860;52.018;8.536;2023-05-10T07:41:54;13.60;99.90
11609;DHT22;5860;52.018;8.536;2023-05-10T07:44:21;13.60;99.90
11609;DHT22;5860;52.018;8.536;2023-05-10T07:49:15;13.70;99.90
11609;DHT22;5860;52.018;8.536;2023-05-10T07:51:42;13.80;99.90
11609;DHT22;5860;52.018;8.536;2023-05-10T07:54:10;13.80;99.90
11609;DHT22;5860;52.018;8.536;2023-05-10T07:56:37;13.70;99.90
11609;DHT22;5860;52.018;8.536;2023-05-10T07:59:06;13.80;99.90
11609;DHT22;5860;52.018;8.536;2023-05-10T08:01:36;13.80;99.90
11609;DHT22;5860;52.018;8.536;2023-05-10T08:04:04;13.90;99.90
11609;DHT22;5860;52.018;8.536;2023-05-10T08:06:31;13.70;99.90
11609;DHT22;5860;52.018;8.536;2023-05-10T08:08:58;13.80;99.90
11609;DHT22;5860;52.018;8.536;2023-05-10T08:11:25;13.90;99.90
11609;DHT22;5860;52.018;8.536;2023-05-10T08:13:52;14.00;99.90
11609;DHT22;5860;52.018;8.536;2023-05-10T08:16:19;14.10;99.90
11609;DHT22;5860;52.018;8.536;2023-05-10T08:18:47;14.40;99.90
11609;DHT22;5860;52.018;8.536;2023-05-10T08:21:16;14.70;99.90
11609;DHT22;5860;52.018;8.536;2023-05-10T08:23:45;14.80;99.90
11609;DHT22;5860;52.018;8.536;2023-05-10T08:26:15;14.80;99.90
11609;DHT22;5860;52.018;8.536;2023-05-10T08:28:43;14.80;99.90
11609;DHT22;5860;52.018;8.536;2023-05-10T08:31:09;15.10;99.90
11609;DHT22;5860;52.018;8.536;2023-05-10T08:33:36;15.20;99.90
11609;DHT22;5860;52.018;8.536;2023-05-10T08:36:03;15.40;99.90
11609;DHT22;5860;52.018;8.536;2023-05-10T08:38:30;15.30;99.90
11609;DHT22;5860;52.018;8.536;2023-05-10T08:40:58;15.40;99.90
11609;DHT22;5860;52.018;8.536;2023-05-10T08:43:30;15.40;99.90
11609;DHT22;5860;52.018;8.536;2023-05-10T08:46:00;15.40;99.90
11609;DHT22;5860;52.018;8.536;2023-05-10T08:48:29;15.30;99.90
11609;DHT22;5860;52.018;8.536;2023-05-10T08:50:58;15.10;99.90
11609;DHT22;5860;52.018;8.536;2023-05-10T08:53:27;15.20;99.90
11609;DHT22;5860;52.018;8.536;2023-05-10T08:55:57;15.20;99.90
11609;DHT22;5860;52.018;8.536;2023-05-10T08:58:25;14.90;99.90
11609;DHT22;5860;52.018;8.536;2023-05-10T09:00:52;14.70;99.90
11609;DHT22;5860;52.018;8.536;2023-05-10T09:03:19;14.40;99.90
11609;DHT22;5860;52.018;8.536;2023-05-10T09:05:48;14.20;99.90
11609;DHT22;5860;52.018;8.536;2023-05-10T09:08:15;14.10;99.90
11609;DHT22;5860;52.018;8.536;2023-05-10T09:10:45;14.10;99.90
11609;DHT22;5860;52.018;8.536;2023-05-10T09:13:14;14.10;99.90
11609;DHT22;5860;52.018;8.536;2023-05-10T09:15:44;14.20;99.90
11609;DHT22;5860;52.018;8.536;2023-05-10T09:18:12;14.20;99.90
11609;DHT22;5860;52.018;8.536;2023-05-10T09:20:39;14.30;99.90
11609;DHT22;5860;52.018;8.536;2023-05-10T09:23:07;14.50;99.90
11609;DHT22;5860;52.018;8.536;2023-05-10T09:25:34;14.60;99.90
11609;DHT22;5860;52.018;8.536;2023-05-10T09:28:01;14.70;99.90
11609;DHT22;5860;52.018;8.536;2023-05-10T09:30:30;14.80;99.90
11609;DHT22;5860;52.018;8.536;2023-05-10T09:32:59;15.10;99.90
11609;DHT22;5860;52.018;8.536;2023-05-10T09:35:31;15.20;99.90
11609;DHT22;5860;52.018;8.536;2023-05-10T09:38:04;15.50;99.90
11609;DHT22;5860;52.018;8.536;2023-05-10T09:40:31;15.50;99.90
11609;DHT22;5860;52.018;8.536;2023-05-10T09:43:03;15.70;99.90
11609;DHT22;5860;52.018;8.536;2023-05-10T09:45:31;16.10;99.90
11609;DHT22;5860;52.018;8.536;2023-05-10T09:48:03;16.30;99.90
11609;DHT22;5860;52.018;8.536;2023-05-10T09:50:30;16.70;99.90
11609;DHT22;5860;52.018;8.536;2023-05-10T09:52:58;16.80;99.90
11609;DHT22;5860;52.018;8.536;2023-05-10T09:55:39;16.90;99.90
11609;DHT22;5860;52.018;8.536;2023-05-10T09:58:07;16.80;99.90
11609;DHT22;5860;52.018;8.536;2023-05-10T10:00:42;16.80;99.90
11609;DHT22;5860;52.018;8.536;2023-05-10T10:03:16;17.30;99.90
11609;DHT22;5860;52.018;8.536;2023-05-10T10:05:44;17.10;99.90
11609;DHT22;5860;52.018;8.536;2023-05-10T10:08:13;17.40;99.90
11609;DHT22;5860;52.018;8.536;2023-05-10T10:10:41;18.50;99.90
11609;DHT22;5860;52.018;8.536;2023-05-10T10:13:08;18.90;99.90
11609;DHT22;5860;52.018;8.536;2023-05-10T10:15:35;18.80;99.90
11609;DHT22;5860;52.018;8.536;2023-05-10T10:18:03;18.80;99.90
11609;DHT22;5860;52.018;8.536;2023-05-10T10:20:31;18.50;99.90
11609;DHT22;5860;52.018;8.536;2023-05-10T10:22:58;19.30;99.90
11609;DHT22;5860;52.018;8.536;2023-05-10T10:25:25;19.70;99.90
11609;DHT22;5860;52.018;8.536;2023-05-10T10:30:43;20.40;99.90
11609;DHT22;5860;52.018;8.536;2023-05-10T10:36:00;20.30;99.90
11609;DHT22;5860;52.018;8.536;2023-05-10T10:41:33;20.80;99.90
11609;DHT22;5860;52.018;8.536;2023-05-10T10:44:22;20.40;99.90
11609;DHT22;5860;52.018;8.536;2023-05-10T10:52:27;20.10;99.90
11609;DHT22;5860;52.018;8.536;2023-05-10T10:57:52;20.30;99.90
11609;DHT22;5860;52.018;8.536;2023-05-10T11:00:29;20.00;99.90
11609;DHT22;5860;52.018;8.536;2023-05-10T11:03:06;19.60;99.90
11609;DHT22;5860;52.018;8.536;2023-05-10T11:05:36;19.30;99.90
11609;DHT22;5860;52.018;8.536;2023-05-10T11:08:30;19.40;99.90
11609;DHT22;5860;52.018;8.536;2023-05-10T11:13:40;19.60;99.90
11609;DHT22;5860;52.018;8.536;2023-05-10T11:16:22;19.50;99.90
11609;DHT22;5860;52.018;8.536;2023-05-10T11:19:02;19.00;99.90
11609;DHT22;5860;52.018;8.536;2023-05-10T11:21:31;18.50;99.90
11609;DHT22;5860;52.018;8.536;2023-05-10T11:24:00;18.40;99.90
11609;DHT22;5860;52.018;8.536;2023-05-10T11:26:31;18.40;99.90
11609;DHT22;5860;52.018;8.536;2023-05-10T11:28:59;18.40;99.90
11609;DHT22;5860;52.018;8.536;2023-05-10T11:31:28;18.40;99.90
11609;DHT22;5860;52.018;8.536;2023-05-10T11:33:57;18.20;99.90
11609;DHT22;5860;52.018;8.536;2023-05-10T11:36:32;18.20;99.90
11609;DHT22;5860;52.018;8.536;2023-05-10T11:38:59;18.20;99.90
11609;DHT22;5860;52.018;8.536;2023-05-10T11:41:28;18.40;99.90
11609;DHT22;5860;52.018;8.536;2023-05-10T11:43:56;18.40;99.90
11609;DHT22;5860;52.018;8.536;2023-05-10T11:46:27;18.40;99.90
11609;DHT22;5860;52.018;8.536;2023-05-10T11:49:00;18.30;99.90
11609;DHT22;5860;52.018;8.536;2023-05-10T11:51:36;18.60;99.90
11609;DHT22;5860;52.018;8.536;2023-05-10T11:54:08;18.50;99.90
11609;DHT22;5860;52.018;8.536;2023-05-10T11:56:37;18.20;99.90
11609;DHT22;5860;52.018;8.536;2023-05-10T11:59:04;18.20;99.90
11609;DHT22;5860;52.018;8.536;2023-05-10T12:01:32;18.00;99.90
11609;DHT22;5860;52.018;8.536;2023-05-10T12:03:59;17.90;99.90
11609;DHT22;5860;52.018;8.536;2023-05-10T12:06:29;17.90;99.90
11609;DHT22;5860;52.018;8.536;2023-05-10T12:08:58;17.70;99.90
11609;DHT22;5860;52.018;8.536;2023-05-10T12:11:27;17.60;99.90
11609;DHT22;5860;52.018;8.536;2023-05-10T12:13:55;17.30;99.90
11609;DHT22;5860;52.018;8.536;2023-05-10T12:16:25;17.00;99.90
11609;DHT22;5860;52.018;8.536;2023-05-10T12:18:56;16.70;99.90
11609;DHT22;5860;52.018;8.536;2023-05-10T12:21:24;16.50;99.90
11609;DHT22;5860;52.018;8.536;2023-05-10T12:23:53;16.30;99.90
11609;DHT22;5860;52.018;8.536;2023-05-10T12:26:24;16.10;99.90
11609;DHT22;5860;52.018;8.536;2023-05-10T12:29:11;16.20;99.90
11609;DHT22;5860;52.018;8.536;2023-05-10T12:31:58;16.30;99.90
11609;DHT22;5860;52.018;8.536;2023-05-10T12:34:35;16.50;99.90
11609;DHT22;5860;52.018;8.536;2023-05-10T12:37:03;16.70;99.90
11609;DHT22;5860;52.018;8.536;2023-05-10T12:39:41;17.00;99.90
11609;DHT22;5860;52.018;8.536;2023-05-10T12:42:09;17.20;99.90
11609;DHT22;5860;52.018;8.536;2023-05-10T12:44:37;17.30;99.90
11609;DHT22;5860;52.018;8.536;2023-05-10T12:47:04;17.10;99.90
11609;DHT22;5860;52.018;8.536;2023-05-10T12:49:31;17.10;99.90
11609;DHT22;5860;52.018;8.536;2023-05-10T12:51:58;16.80;99.90
11609;DHT22;5860;52.018;8.536;2023-05-10T12:54:25;16.60;99.90
11609;DHT22;5860;52.018;8.536;2023-05-10T12:56:52;16.90;99.90
11609;DHT22;5860;52.018;8.536;2023-05-10T12:59:20;17.00;99.90
11609;DHT22;5860;52.018;8.536;2023-05-10T13:01:47;17.10;99.90
11609;DHT22;5860;52.018;8.536;2023-05-10T13:04:14;17.40;99.90
11609;DHT22;5860;52.018;8.536;2023-05-10T13:06:42;17.90;99.90
11609;DHT22;5860;52.018;8.536;2023-05-10T13:09:09;18.50;99.90
11609;DHT22;5860;52.018;8.536;2023-05-10T13:11:36;18.40;99.90
11609;DHT22;5860;52.018;8.536;2023-05-10T13:14:03;18.20;99.90
11609;DHT22;5860;52.018;8.536;2023-05-10T13:16:30;18.30;99.90
11609;DHT22;5860;52.018;8.536;2023-05-10T13:18:58;18.30;99.90
11609;DHT22;5860;52.018;8.536;2023-05-10T13:21:25;18.60;99.90
11609;DHT22;5860;52.018;8.536;2023-05-10T13:23:53;18.40;99.90
11609;DHT22;5860;52.018;8.536;2023-05-10T13:26:20;18.00;99.90
11609;DHT22;5860;52.018;8.536;2023-05-10T13:28:47;18.00;99.90
11609;DHT22;5860;52.018;8.536;2023-05-10T13:31:15;18.00;99.90
11609;DHT22;5860;52.018;8.536;2023-05-10T13:33:42;18.00;99.90
11609;DHT22;5860;52.018;8.536;2023-05-10T13:36:09;17.70;99.90
11609;DHT22;5860;52.018;8.536;2023-05-10T13:38:36;17.40;99.90
11609;DHT22;5860;52.018;8.536;2023-05-10T13:41:04;16.70;99.90
11609;DHT22;5860;52.018;8.536;2023-05-10T13:43:31;16.30;99.90
11609;DHT22;5860;52.018;8.536;2023-05-10T13:45:58;15.80;99.90
11609;DHT22;5860;52.018;8.536;2023-05-10T13:48:25;15.50;99.90
11609;DHT22;5860;52.018;8.536;2023-05-10T13:50:52;15.30;99.90
11609;DHT22;5860;52.018;8.536;2023-05-10T13:53:19;15.20;99.90
11609;DHT22;5860;52.018;8.536;2023-05-10T13:55:46;15.20;99.90
11609;DHT22;5860;52.018;8.536;2023-05-10T13:58:13;15.00;99.90
11609;DHT22;5860;52.018;8.536;2023-05-10T14:00:41;14.90;99.90
11609;DHT22;5860;52.018;8.536;2023-05-10T14:03:08;14.90;99.90
11609;DHT22;5860;52.018;8.536;2023-05-10T14:05:38;14.90;99.90
11609;DHT22;5860;52.018;8.536;2023-05-10T14:08:05;14.90;99.90
11609;DHT22;5860;52.018;8.536;2023-05-10T14:10:32;14.90;99.90
11609;DHT22;5860;52.018;8.536;2023-05-10T14:12:59;15.00;99.90
11609;DHT22;5860;52.018;8.536;2023-05-10T14:15:26;14.90;99.90
11609;DHT22;5860;52.018;8.536;2023-05-10T14:17:53;15.00;99.90
11609;DHT22;5860;52.018;8.536;2023-05-10T14:20:20;15.00;99.90
11609;DHT22;5860;52.018;8.536;2023-05-10T14:22:47;15.00;99.90
11609;DHT22;5860;52.018;8.536;2023-05-10T14:25:16;14.90;99.90
11609;DHT22;5860;52.018;8.536;2023-05-10T14:27:43;14.90;99.90
11609;DHT22;5860;52.018;8.536;2023-05-10T14:30:11;15.00;99.90
11609;DHT22;5860;52.018;8.536;2023-05-10T14:32:38;15.10;99.90
11609;DHT22;5860;52.018;8.536;2023-05-10T14:35:05;15.10;99.90
11609;DHT22;5860;52.018;8.536;2023-05-10T14:37:33;15.20;99.90
11609;DHT22;5860;52.018;8.536;2023-05-10T14:40:00;15.30;99.90
11609;DHT22;5860;52.018;8.536;2023-05-10T14:42:27;15.50;99.90
11609;DHT22;5860;52.018;8.536;2023-05-10T14:44:54;15.70;99.90
11609;DHT22;5860;52.018;8.536;2023-05-10T14:47:21;15.90;99.90
11609;DHT22;5860;52.018;8.536;2023-05-10T14:49:48;15.90;99.90
11609;DHT22;5860;52.018;8.536;2023-05-10T14:52:15;16.10;99.90
11609;DHT22;5860;52.018;8.536;2023-05-10T14:54:43;16.00;99.90
11609;DHT22;5860;52.018;8.536;2023-05-10T14:57:10;16.20;99.90
11609;DHT22;5860;52.018;8.536;2023-05-10T14:59:37;16.30;99.90
11609;DHT22;5860;52.018;8.536;2023-05-10T15:02:05;16.40;99.90
11609;DHT22;5860;52.018;8.536;2023-05-10T15:04:33;16.50;99.90
11609;DHT22;5860;52.018;8.536;2023-05-10T15:07:00;16.50;99.90
11609;DHT22;5860;52.018;8.536;2023-05-10T15:09:27;16.60;99.90
11609;DHT22;5860;52.018;8.536;2023-05-10T15:11:55;16.60;99.90
11609;DHT22;5860;52.018;8.536;2023-05-10T15:14:22;16.80;99.90
11609;DHT22;5860;52.018;8.536;2023-05-10T15:16:49;16.70;99.90
11609;DHT22;5860;52.018;8.536;2023-05-10T15:19:16;16.80;99.90
11609;DHT22;5860;52.018;8.536;2023-05-10T15:21:43;16.80;99.90
11609;DHT22;5860;52.018;8.536;2023-05-10T15:24:11;16.80;99.90
11609;DHT22;5860;52.018;8.536;2023-05-10T15:26:38;16.70;99.90
11609;DHT22;5860;52.018;8.536;2023-05-10T15:29:05;16.60;99.90
11609;DHT22;5860;52.018;8.536;2023-05-10T15:31:31;16.80;99.90
11609;DHT22;5860;52.018;8.536;2023-05-10T15:34:01;16.80;99.90
11609;DHT22;5860;52.018;8.536;2023-05-10T15:36:29;16.90;99.90
11609;DHT22;5860;52.018;8.536;2023-05-10T15:38:56;17.00;99.90
11609;DHT22;5860;52.018;8.536;2023-05-10T15:41:22;16.90;99.90
11609;DHT22;5860;52.018;8.536;2023-05-10T15:43:50;16.80;99.90
11609;DHT22;5860;52.018;8.536;2023-05-10T15:46:17;16.60;99.90
11609;DHT22;5860;52.018;8.536;2023-05-10T15:48:44;16.40;99.90
11609;DHT22;5860;52.018;8.536;2023-05-10T15:51:12;16.40;99.90
11609;DHT22;5860;52.018;8.536;2023-05-10T15:53:38;16.40;99.90
11609;DHT22;5860;52.018;8.536;2023-05-10T15:56:18;16.20;99.90
11609;DHT22;5860;52.018;8.536;2023-05-10T15:58:45;16.10;99.90
11609;DHT22;5860;52.018;8.536;2023-05-10T16:01:13;16.10;99.90
11609;DHT22;5860;52.018;8.536;2023-05-10T16:03:40;16.10;99.90
11609;DHT22;5860;52.018;8.536;2023-05-10T16:06:07;16.00;99.90
11609;DHT22;5860;52.018;8.536;2023-05-10T16:08:34;15.90;99.90
11609;DHT22;5860;52.018;8.536;2023-05-10T16:11:01;15.80;99.90
11609;DHT22;5860;52.018;8.536;2023-05-10T16:13:28;15.70;99.90
11609;DHT22;5860;52.018;8.536;2023-05-10T16:15:56;15.60;99.90
11609;DHT22;5860;52.018;8.536;2023-05-10T16:18:25;15.50;99.90
11609;DHT22;5860;52.018;8.536;2023-05-10T16:20:53;15.30;99.90
11609;DHT22;5860;52.018;8.536;2023-05-10T16:23:20;15.10;99.90
11609;DHT22;5860;52.018;8.536;2023-05-10T16:25:47;15.00;99.90
11609;DHT22;5860;52.018;8.536;2023-05-10T16:28:14;14.90;99.90
11609;DHT22;5860;52.018;8.536;2023-05-10T16:30:41;14.80;99.90
11609;DHT22;5860;52.018;8.536;2023-05-10T16:33:08;14.80;99.90
11609;DHT22;5860;52.018;8.536;2023-05-10T16:35:35;14.70;99.90
11609;DHT22;5860;52.018;8.536;2023-05-10T16:38:02;14.50;99.90
11609;DHT22;5860;52.018;8.536;2023-05-10T16:40:30;14.50;99.90